createdAt,value
2022-09-23T00:01:15.489Z,7.35
2022-09-23T00:03:49.143Z,7.32
2022-09-23T00:06:23.464Z,7.30
2022-09-23T00:08:55.336Z,7.27
2022-09-23T00:11:29.116Z,7.25
2022-09-23T00:14:02.225Z,7.21
2022-09-23T00:16:36.039Z,7.18
2022-09-23T00:19:07.993Z,7.15
2022-09-23T00:21:39.969Z,7.13
2022-09-23T00:24:11.878Z,7.11
2022-09-23T00:26:44.084Z,7.11
2022-09-23T00:29:16.885Z,7.09
2022-09-23T00:31:49.293Z,7.06
2022-09-23T00:34:21.373Z,7.06
2022-09-23T00:36:53.541Z,7.03
2022-09-23T00:39:26.442Z,7.00
2022-09-23T00:41:58.364Z,6.98
2022-09-23T00:44:50.270Z,6.95
2022-09-23T00:47:26.529Z,6.94
2022-09-23T00:50:11.093Z,6.92
2022-09-23T00:52:42.952Z,6.90
2022-09-23T00:55:20.006Z,6.86
2022-09-23T00:57:54.736Z,6.84
2022-09-23T01:00:27.119Z,6.81
2022-09-23T01:03:00.231Z,6.78
2022-09-23T01:05:33.113Z,6.74
2022-09-23T01:08:07.890Z,6.72
2022-09-23T01:10:52.494Z,6.69
2022-09-23T01:13:32.171Z,6.66
2022-09-23T01:16:12.739Z,6.63
2022-09-23T01:18:49.147Z,6.60
2022-09-23T01:21:36.564Z,6.55
2022-09-23T01:24:25.201Z,6.53
2022-09-23T01:27:06.853Z,6.49
2022-09-23T01:30:33.103Z,6.45
2022-09-23T01:33:14.349Z,6.41
2022-09-23T01:35:58.887Z,6.40
2022-09-23T01:38:40.606Z,6.39
2022-09-23T01:41:26.145Z,6.38
2022-09-23T01:44:04.952Z,6.36
2022-09-23T01:46:42.769Z,6.34
2022-09-23T01:49:19.937Z,6.30
2022-09-23T01:51:57.622Z,6.24
2022-09-23T01:54:38.612Z,6.17
2022-09-23T01:57:16.203Z,6.12
2022-09-23T01:59:53.634Z,6.08
2022-09-23T02:02:32.943Z,6.03
2022-09-23T02:05:14.500Z,6.00
2022-09-23T02:07:53.249Z,5.95
2022-09-23T02:10:29.799Z,5.94
2022-09-23T02:13:07.396Z,5.94
2022-09-23T02:15:42.986Z,5.94
2022-09-23T02:18:19.073Z,5.92
2022-09-23T02:20:56.635Z,5.90
2022-09-23T02:23:33.987Z,5.88
2022-09-23T02:26:15.057Z,5.85
2022-09-23T02:28:53.949Z,5.83
2022-09-23T02:31:33.648Z,5.82
2022-09-23T02:34:22.036Z,5.81
2022-09-23T02:37:04.666Z,5.78
2022-09-23T02:39:49.213Z,5.77
2022-09-23T02:42:26.749Z,5.75
2022-09-23T02:44:59.028Z,5.74
2022-09-23T02:47:35.351Z,5.72
2022-09-23T02:50:09.501Z,5.70
2022-09-23T02:52:41.357Z,5.68
2022-09-23T02:55:17.702Z,5.66
2022-09-23T02:57:49.587Z,5.65
2022-09-23T03:00:21.813Z,5.63
2022-09-23T03:03:10.615Z,5.59
2022-09-23T03:05:50.632Z,5.56
2022-09-23T03:08:36.854Z,5.56
2022-09-23T03:11:11.717Z,5.51
2022-09-23T03:13:56.871Z,5.43
2022-09-23T03:16:37.915Z,5.38
2022-09-23T03:19:21.735Z,5.31
2022-09-23T03:22:01.141Z,5.27
2022-09-23T03:24:34.979Z,5.28
2022-09-23T03:27:13.669Z,5.23
2022-09-23T03:29:47.557Z,5.17
2022-09-23T03:32:22.127Z,5.15
2022-09-23T03:34:56.201Z,5.18
2022-09-23T03:37:34.315Z,5.18
2022-09-23T03:40:14.250Z,5.18
2022-09-23T03:42:49.063Z,5.17
2022-09-23T03:45:23.930Z,5.17
2022-09-23T03:47:55.945Z,5.17
2022-09-23T03:50:28.224Z,5.16
2022-09-23T03:53:00.514Z,5.13
2022-09-23T03:55:32.619Z,5.11
2022-09-23T03:58:04.991Z,5.09
2022-09-23T04:00:37.340Z,5.07
2022-09-23T04:03:11.759Z,5.04
2022-09-23T04:05:46.006Z,5.04
2022-09-23T04:08:18.475Z,5.03
2022-09-23T04:10:54.623Z,5.02
2022-09-23T04:13:26.755Z,5.02
2022-09-23T04:15:58.652Z,4.98
2022-09-23T04:18:31.391Z,4.97
2022-09-23T04:21:03.668Z,4.95
2022-09-23T04:23:36.274Z,4.90
2022-09-23T04:26:08.557Z,4.85
2022-09-23T04:28:40.778Z,4.81
2022-09-23T04:31:13.070Z,4.79
2022-09-23T04:33:44.986Z,4.77
2022-09-23T04:36:16.871Z,4.73
2022-09-23T04:38:50.279Z,4.73
2022-09-23T04:41:22.474Z,4.74
2022-09-23T04:43:54.990Z,4.76
2022-09-23T04:46:27.212Z,4.77
2022-09-23T04:48:59.814Z,4.74
2022-09-23T04:51:31.754Z,4.74
2022-09-23T04:54:04.638Z,4.76
2022-09-23T04:56:37.458Z,4.79
2022-09-23T04:59:09.714Z,4.80
2022-09-23T05:01:42.247Z,4.81
2022-09-23T05:04:15.002Z,4.81
2022-09-23T05:06:47.110Z,4.83
2022-09-23T05:09:19.882Z,4.83
2022-09-23T05:11:52.051Z,4.84
2022-09-23T05:14:23.945Z,4.84
2022-09-23T05:16:56.284Z,4.83
2022-09-23T05:19:28.751Z,4.85
2022-09-23T05:22:00.562Z,4.87
2022-09-23T05:24:32.728Z,4.89
2022-09-23T05:27:07.257Z,4.90
2022-09-23T05:29:39.808Z,4.84
2022-09-23T05:32:11.576Z,4.84
2022-09-23T05:34:43.478Z,4.82
2022-09-23T05:37:15.446Z,4.79
2022-09-23T05:39:47.303Z,4.78
2022-09-23T05:42:20.693Z,4.80
2022-09-23T05:44:52.719Z,4.84
2022-09-23T05:47:24.662Z,4.87
2022-09-23T05:49:59.902Z,4.87
2022-09-23T05:52:34.986Z,4.90
2022-09-23T05:55:08.605Z,4.92
2022-09-23T05:57:40.450Z,4.96
2022-09-23T06:00:14.547Z,5.02
2022-09-23T06:02:48.087Z,5.05
2022-09-23T06:05:20.704Z,5.09
2022-09-23T06:07:52.748Z,5.13
2022-09-23T06:10:24.663Z,5.16
2022-09-23T06:12:56.530Z,5.19
2022-09-23T06:15:28.737Z,5.19
2022-09-23T06:18:00.668Z,5.20
2022-09-23T06:20:32.946Z,5.23
2022-09-23T06:23:10.352Z,5.26
2022-09-23T06:25:43.446Z,5.30
2022-09-23T06:28:15.796Z,5.35
2022-09-23T06:30:54.311Z,5.39
2022-09-23T06:33:36.076Z,5.45
2022-09-23T06:36:10.396Z,5.50
2022-09-23T06:38:44.887Z,5.53
2022-09-23T06:41:17.930Z,5.58
2022-09-23T06:43:49.902Z,5.63
2022-09-23T06:46:21.991Z,5.69
2022-09-23T06:48:53.986Z,5.74
2022-09-23T06:51:25.867Z,5.78
2022-09-23T06:53:57.821Z,5.84
2022-09-23T06:56:32.414Z,5.90
2022-09-23T06:59:06.684Z,5.95
2022-09-23T07:01:38.722Z,6.00
2022-09-23T07:04:11.251Z,6.05
2022-09-23T07:06:43.556Z,6.13
2022-09-23T07:09:15.375Z,6.19
2022-09-23T07:11:49.782Z,6.27
2022-09-23T07:14:22.586Z,6.33
2022-09-23T07:16:54.864Z,6.38
2022-09-23T07:19:26.753Z,6.45
2022-09-23T07:21:58.645Z,6.51
2022-09-23T07:24:31.156Z,6.57
2022-09-23T07:27:03.212Z,6.63
2022-09-23T07:29:44.898Z,6.71
2022-09-23T07:32:22.144Z,6.80
2022-09-23T07:34:54.278Z,6.87
2022-09-23T07:37:26.125Z,6.94
2022-09-23T07:39:58.018Z,7.02
2022-09-23T07:42:29.838Z,7.09
2022-09-23T07:45:02.348Z,7.19
2022-09-23T07:47:34.815Z,7.28
2022-09-23T07:50:08.046Z,7.36
2022-09-23T07:52:40.573Z,7.45
2022-09-23T07:55:17.640Z,7.57
2022-09-23T07:57:52.791Z,7.70
2022-09-23T08:00:24.802Z,7.82
2022-09-23T08:02:56.742Z,7.95
2022-09-23T08:05:29.458Z,8.07
2022-09-23T08:08:01.400Z,8.18
2022-09-23T08:10:33.287Z,8.29
2022-09-23T08:13:05.144Z,8.37
2022-09-23T08:15:37.116Z,8.44
2022-09-23T08:18:09.095Z,8.51
2022-09-23T08:20:48.018Z,8.61
2022-09-23T08:23:20.658Z,8.71
2022-09-23T08:26:00.198Z,8.81
2022-09-23T08:28:33.268Z,8.91
2022-09-23T08:31:05.455Z,9.02
2022-09-23T08:33:37.558Z,9.12
2022-09-23T08:36:10.549Z,9.21
2022-09-23T08:38:43.390Z,9.30
2022-09-23T08:41:29.317Z,9.41
2022-09-23T08:44:06.018Z,9.56
2022-09-23T08:46:42.457Z,9.67
2022-09-23T08:49:20.218Z,9.77
2022-09-23T08:51:54.937Z,9.85
2022-09-23T08:54:31.919Z,9.92
2022-09-23T08:57:06.564Z,10.00
2022-09-23T08:59:43.351Z,10.08
2022-09-23T09:02:19.861Z,10.18
2022-09-23T09:04:54.958Z,10.26
2022-09-23T09:07:38.202Z,10.34
2022-09-23T09:10:20.929Z,10.43
2022-09-23T09:13:01.145Z,10.50
2022-09-23T09:15:36.969Z,10.56
2022-09-23T09:18:14.276Z,10.60
2022-09-23T09:20:57.097Z,10.68
2022-09-23T09:23:36.298Z,10.76
2022-09-23T09:26:17.702Z,10.82
2022-09-23T09:28:54.774Z,10.88
2022-09-23T09:31:33.950Z,10.93
2022-09-23T09:34:12.165Z,11.00
2022-09-23T09:36:50.358Z,11.11
2022-09-23T09:39:26.128Z,11.23
2022-09-23T09:42:00.600Z,11.32
2022-09-23T09:44:40.049Z,11.44
2022-09-23T09:47:28.915Z,11.60
2022-09-23T09:50:09.452Z,11.74
2022-09-23T09:52:43.394Z,11.88
2022-09-23T09:55:29.903Z,11.98
2022-09-23T09:58:06.037Z,12.12
2022-09-23T10:00:43.999Z,12.24
2022-09-23T10:03:40.078Z,12.33
2022-09-23T10:06:21.660Z,12.44
2022-09-23T10:09:13.843Z,12.53
2022-09-23T10:12:11.931Z,12.59
2022-09-23T10:14:44.228Z,12.65
2022-09-23T10:17:20.581Z,12.70
2022-09-23T10:20:00.987Z,12.73
2022-09-23T10:22:39.917Z,12.78
2022-09-23T10:25:21.665Z,12.84
2022-09-23T10:27:53.862Z,12.91
2022-09-23T10:30:28.327Z,12.97
2022-09-23T10:33:00.234Z,13.04
2022-09-23T10:35:34.513Z,13.13
2022-09-23T10:38:06.442Z,13.20
2022-09-23T10:40:58.570Z,13.27
2022-09-23T10:44:00.944Z,13.39
2022-09-23T10:46:41.735Z,13.47
2022-09-23T10:49:49.977Z,13.51
2022-09-23T10:52:46.607Z,13.59
2022-09-23T10:55:34.827Z,13.67
2022-09-23T10:58:26.386Z,13.72
2022-09-23T11:01:13.190Z,13.77
2022-09-23T11:04:11.992Z,13.87
2022-09-23T11:06:55.898Z,13.89
2022-09-23T11:09:40.861Z,13.88
2022-09-23T11:12:27.466Z,13.90
2022-09-23T11:15:16.739Z,13.99
2022-09-23T11:18:22.289Z,14.10
2022-09-23T11:21:03.438Z,14.23
2022-09-23T11:23:52.559Z,14.31
2022-09-23T11:26:37.930Z,14.40
2022-09-23T11:29:31.702Z,14.50
2022-09-23T11:32:27.737Z,14.60
2022-09-23T11:35:12.704Z,14.69
2022-09-23T11:37:48.121Z,14.78
2022-09-23T11:40:27.922Z,14.84
2022-09-23T11:43:04.411Z,14.89
2022-09-23T11:45:43.366Z,14.92
2022-09-23T11:48:21.646Z,14.96
2022-09-23T11:51:01.351Z,15.00
2022-09-23T11:53:45.103Z,15.03
2022-09-23T11:56:33.348Z,15.06
2022-09-23T11:59:37.278Z,15.11
2022-09-23T12:02:24.667Z,15.18
2022-09-23T12:05:07.569Z,15.20
2022-09-23T12:07:51.896Z,15.23
2022-09-23T12:10:28.846Z,15.24
2022-09-23T12:13:07.457Z,15.22
2022-09-23T12:15:53.640Z,15.13
2022-09-23T12:18:42.319Z,15.08
2022-09-23T12:21:50.400Z,15.07
2022-09-23T12:24:46.670Z,15.06
2022-09-23T12:27:30.453Z,15.05
2022-09-23T12:30:11.953Z,15.05
2022-09-23T12:32:47.544Z,15.05
2022-09-23T12:35:26.633Z,15.06
2022-09-23T12:38:00.974Z,15.10
2022-09-23T12:40:35.893Z,15.15
2022-09-23T12:43:16.282Z,15.21
2022-09-23T12:45:48.609Z,15.26
2022-09-23T12:48:46.852Z,15.30
2022-09-23T12:51:23.277Z,15.30
2022-09-23T12:53:58.011Z,15.32
2022-09-23T12:56:45.209Z,15.32
2022-09-23T12:59:31.719Z,15.33
2022-09-23T13:02:27.463Z,15.33
2022-09-23T13:05:28.852Z,15.37
2022-09-23T13:08:04.219Z,15.39
2022-09-23T13:10:44.152Z,15.39
2022-09-23T13:13:25.378Z,15.34
2022-09-23T13:16:12.067Z,15.33
2022-09-23T13:19:01.673Z,15.31
2022-09-23T13:22:03.792Z,15.32
2022-09-23T13:24:53.800Z,15.28
2022-09-23T13:27:32.305Z,15.25
2022-09-23T13:30:21.227Z,15.25
2022-09-23T13:33:06.357Z,15.26
2022-09-23T13:35:42.059Z,15.26
2022-09-23T13:38:20.020Z,15.26
2022-09-23T13:40:52.231Z,15.23
2022-09-23T13:43:31.902Z,15.18
2022-09-23T13:46:09.624Z,15.13
2022-09-23T13:48:44.313Z,15.12
2022-09-23T13:51:23.637Z,15.11
2022-09-23T13:53:59.660Z,15.08
2022-09-23T13:56:33.543Z,15.06
2022-09-23T13:59:24.043Z,15.03
2022-09-23T14:02:08.319Z,14.99
2022-09-23T14:04:40.405Z,14.98
2022-09-23T14:07:15.768Z,14.98
2022-09-23T14:09:49.943Z,15.00
2022-09-23T14:12:23.086Z,15.01
2022-09-23T14:14:55.350Z,14.95
2022-09-23T14:17:27.294Z,14.93
2022-09-23T14:19:59.321Z,14.92
2022-09-23T14:22:32.525Z,14.89
2022-09-23T14:25:04.831Z,14.86
2022-09-23T14:27:37.624Z,14.87
2022-09-23T14:30:19.184Z,14.86
2022-09-23T14:32:52.201Z,14.84
2022-09-23T14:35:27.130Z,14.81
2022-09-23T14:38:18.034Z,14.74
2022-09-23T14:41:12.046Z,14.70
2022-09-23T14:43:50.693Z,14.64
2022-09-23T14:46:24.580Z,14.62
2022-09-23T14:49:05.988Z,14.61
2022-09-23T14:51:49.355Z,14.58
2022-09-23T14:54:36.503Z,14.54
2022-09-23T14:57:29.794Z,14.49
2022-09-23T15:00:10.295Z,14.46
2022-09-23T15:02:46.366Z,14.47
2022-09-23T15:05:21.656Z,14.47
2022-09-23T15:07:56.722Z,14.46
2022-09-23T15:10:32.760Z,14.46
2022-09-23T15:13:09.724Z,14.46
2022-09-23T15:15:42.393Z,14.45
2022-09-23T15:18:19.691Z,14.46
2022-09-23T15:20:54.933Z,14.45
2022-09-23T15:23:44.887Z,14.43
2022-09-23T15:26:20.031Z,14.44
2022-09-23T15:28:54.234Z,14.44
2022-09-23T15:31:26.827Z,14.45
2022-09-23T15:33:59.026Z,14.43
2022-09-23T15:36:31.242Z,14.41
2022-09-23T15:39:08.734Z,14.36
2022-09-23T15:41:43.360Z,14.31
2022-09-23T15:44:29.584Z,14.26
2022-09-23T15:47:02.018Z,14.20
2022-09-23T15:49:36.767Z,14.15
2022-09-23T15:52:12.370Z,14.08
2022-09-23T15:54:44.945Z,14.03
2022-09-23T15:57:17.096Z,13.98
2022-09-23T15:59:49.362Z,13.93
2022-09-23T16:02:25.246Z,13.88
2022-09-23T16:04:57.476Z,13.81
2022-09-23T16:07:29.794Z,13.74
2022-09-23T16:10:03.503Z,13.68
2022-09-23T16:12:35.613Z,13.60
2022-09-23T16:15:14.672Z,13.53
2022-09-23T16:17:47.295Z,13.47
2022-09-23T16:20:19.593Z,13.39
2022-09-23T16:22:57.202Z,13.32
2022-09-23T16:25:32.095Z,13.25
2022-09-23T16:28:04.999Z,13.18
2022-09-23T16:30:37.593Z,13.11
2022-09-23T16:33:09.466Z,13.03
2022-09-23T16:35:41.276Z,12.96
2022-09-23T16:38:13.910Z,12.90
2022-09-23T16:40:47.302Z,12.82
2022-09-23T16:43:19.757Z,12.74
2022-09-23T16:45:51.666Z,12.66
2022-09-23T16:48:24.909Z,12.60
2022-09-23T16:50:56.792Z,12.53
2022-09-23T16:53:31.151Z,12.45
2022-09-23T16:56:09.484Z,12.37
2022-09-23T16:58:42.297Z,12.30
2022-09-23T17:01:37.886Z,12.23
2022-09-23T17:04:10.666Z,12.14
2022-09-23T17:06:50.301Z,12.08
2022-09-23T17:09:24.849Z,12.02
2022-09-23T17:12:05.892Z,11.95
2022-09-23T17:14:37.797Z,11.90
2022-09-23T17:17:10.456Z,11.84
2022-09-23T17:19:42.412Z,11.79
2022-09-23T17:22:14.461Z,11.75
2022-09-23T17:24:46.764Z,11.71
2022-09-23T17:27:18.983Z,11.66
2022-09-23T17:29:50.875Z,11.62
2022-09-23T17:32:22.937Z,11.57
2022-09-23T17:34:54.919Z,11.52
2022-09-23T17:37:26.740Z,11.48
2022-09-23T17:39:58.635Z,11.43
2022-09-23T17:42:30.737Z,11.38
2022-09-23T17:45:02.660Z,11.34
2022-09-23T17:47:39.452Z,11.28
2022-09-23T17:50:15.270Z,11.24
2022-09-23T17:52:47.179Z,11.19
2022-09-23T17:55:20.073Z,11.14
2022-09-23T17:57:54.278Z,11.09
2022-09-23T18:00:27.457Z,11.05
2022-09-23T18:02:59.816Z,11.01
2022-09-23T18:05:31.981Z,10.95
2022-09-23T18:08:06.118Z,10.91
2022-09-23T18:10:38.176Z,10.88
2022-09-23T18:13:10.739Z,10.83
2022-09-23T18:15:43.311Z,10.78
2022-09-23T18:18:15.580Z,10.74
2022-09-23T18:20:47.567Z,10.69
2022-09-23T18:23:24.024Z,10.65
2022-09-23T18:25:58.210Z,10.61
2022-09-23T18:28:34.928Z,10.58
2022-09-23T18:31:07.444Z,10.55
2022-09-23T18:33:39.722Z,10.53
2022-09-23T18:36:12.680Z,10.49
2022-09-23T18:38:44.799Z,10.48
2022-09-23T18:41:17.808Z,10.46
2022-09-23T18:43:50.435Z,10.44
2022-09-23T18:46:24.493Z,10.42
2022-09-23T18:49:14.659Z,10.41
2022-09-23T18:51:53.932Z,10.38
2022-09-23T18:54:29.745Z,10.34
2022-09-23T18:57:01.793Z,10.34
2022-09-23T18:59:34.188Z,10.31
2022-09-23T19:02:07.796Z,10.29
2022-09-23T19:04:40.355Z,10.28
2022-09-23T19:07:12.500Z,10.25
2022-09-23T19:09:44.883Z,10.22
2022-09-23T19:12:17.064Z,10.19
2022-09-23T19:14:49.211Z,10.16
2022-09-23T19:17:21.463Z,10.12
2022-09-23T19:19:53.501Z,10.08
2022-09-23T19:22:25.726Z,10.04
2022-09-23T19:24:57.780Z,10.00
2022-09-23T19:27:29.801Z,9.97
2022-09-23T19:30:01.843Z,9.94
2022-09-23T19:32:34.923Z,9.91
2022-09-23T19:35:07.811Z,9.89
2022-09-23T19:37:40.813Z,9.86
2022-09-23T19:40:13.621Z,9.84
2022-09-23T19:42:45.690Z,9.81
2022-09-23T19:45:18.517Z,9.79
2022-09-23T19:47:54.395Z,9.77
2022-09-23T19:50:26.734Z,9.76
2022-09-23T19:52:59.895Z,9.73
2022-09-23T19:55:33.305Z,9.70
2022-09-23T19:58:06.006Z,9.67
2022-09-23T20:00:38.118Z,9.65
2022-09-23T20:03:11.408Z,9.62
2022-09-23T20:05:43.342Z,9.59
2022-09-23T20:08:15.172Z,9.57
2022-09-23T20:10:48.304Z,9.54
2022-09-23T20:13:20.343Z,9.52
2022-09-23T20:15:52.275Z,9.50
2022-09-23T20:18:24.213Z,9.47
2022-09-23T20:20:57.699Z,9.45
2022-09-23T20:23:30.810Z,9.43
2022-09-23T20:26:21.934Z,9.40
2022-09-23T20:28:54.377Z,9.37
2022-09-23T20:31:27.250Z,9.35
2022-09-23T20:34:00.085Z,9.33
2022-09-23T20:36:32.913Z,9.31
2022-09-23T20:39:06.880Z,9.30
2022-09-23T20:41:41.032Z,9.29
2022-09-23T20:44:14.131Z,9.27
2022-09-23T20:46:48.956Z,9.26
2022-09-23T20:49:22.797Z,9.25
2022-09-23T20:51:54.719Z,9.22
2022-09-23T20:54:26.712Z,9.19
2022-09-23T20:56:58.862Z,9.16
2022-09-23T20:59:30.982Z,9.13
2022-09-23T21:02:03.301Z,9.11
2022-09-23T21:04:36.168Z,9.10
2022-09-23T21:07:08.328Z,9.08
2022-09-23T21:09:40.682Z,9.07
2022-09-23T21:12:12.559Z,9.06
2022-09-23T21:14:44.557Z,9.03
2022-09-23T21:17:16.452Z,9.03
2022-09-23T21:19:48.234Z,9.01
2022-09-23T21:22:20.103Z,9.00
2022-09-23T21:25:26.185Z,8.99
2022-09-23T21:27:44.886Z,8.98
2022-09-23T21:30:17.927Z,8.97
2022-09-23T21:32:49.854Z,8.95
2022-09-23T21:35:22.110Z,8.94
2022-09-23T21:37:53.985Z,8.93
2022-09-23T21:40:43.791Z,8.92
2022-09-23T21:43:16.842Z,8.91
2022-09-23T21:45:49.551Z,8.89
2022-09-23T21:48:21.743Z,8.87
2022-09-23T21:50:59.347Z,8.86
2022-09-23T21:53:33.000Z,8.84
2022-09-23T21:56:07.681Z,8.82
2022-09-23T21:58:41.316Z,8.81
2022-09-23T22:01:15.752Z,8.80
2022-09-23T22:03:52.936Z,8.79
2022-09-23T22:06:27.303Z,8.76
2022-09-23T22:09:04.130Z,8.74
2022-09-23T22:11:54.370Z,8.73
2022-09-23T22:14:27.337Z,8.72
2022-09-23T22:17:02.358Z,8.70
2022-09-23T22:19:40.299Z,8.69
2022-09-23T22:22:15.585Z,8.68
2022-09-23T22:24:49.221Z,8.68
2022-09-23T22:27:21.843Z,8.69
2022-09-23T22:30:11.575Z,8.70
2022-09-23T22:32:43.758Z,8.70
2022-09-23T22:35:17.973Z,8.71
2022-09-23T22:37:52.238Z,8.72
2022-09-23T22:40:24.462Z,8.72
2022-09-23T22:42:57.079Z,8.72
2022-09-23T22:45:29.018Z,8.73
2022-09-23T22:48:01.105Z,8.73
2022-09-23T22:50:33.069Z,8.74
2022-09-23T22:53:05.069Z,8.75
2022-09-23T22:55:37.284Z,8.76
2022-09-23T22:58:30.706Z,8.77
2022-09-23T23:01:02.587Z,8.78
2022-09-23T23:03:35.365Z,8.79
2022-09-23T23:06:08.810Z,8.81
2022-09-23T23:08:40.758Z,8.83
2022-09-23T23:11:12.823Z,8.84
2022-09-23T23:13:45.218Z,8.86
2022-09-23T23:16:17.419Z,8.87
2022-09-23T23:18:49.356Z,8.89
2022-09-23T23:21:22.339Z,8.90
2022-09-23T23:23:54.707Z,8.92
2022-09-23T23:26:28.601Z,8.93
2022-09-23T23:29:01.575Z,8.94
2022-09-23T23:31:33.720Z,8.95
2022-09-23T23:34:05.937Z,8.96
2022-09-23T23:36:38.336Z,8.98
2022-09-23T23:39:11.366Z,8.98
2022-09-23T23:41:43.388Z,8.98
2022-09-23T23:44:15.604Z,8.99
2022-09-23T23:46:48.298Z,9.01
2022-09-23T23:49:20.460Z,9.01
2022-09-23T23:51:53.111Z,9.02
2022-09-23T23:54:24.917Z,9.04
2022-09-23T23:56:56.792Z,9.05
2022-09-23T23:59:28.932Z,9.06
